PWSweather.com
Personal Weather Stations
Station Observations
IBAVARIA50
Munich, PlieningDE 85652

MunichPlieningDE 85652

Lat: 48.19916153, Lon: 11.79794312

Elevation: 504

Station Type: Davis Vantage Pro2

http://wetterstation-pliening.info

High Low Average
Temperature 54.0°F12.2°C 43.4°F6.3°C 47.3°F8.5°C
Dew Point 39.1°F3.9°C 34.2°F1.2°C 36.8°F2.7°C
Winds 30.0 mph 48.3 kmh 3.0 mph 4.8 kmh 12.0 mph SW19.3 kmh SW
Wind Gusts 33.0 mph53.1 kmh 7.0 mph11.3 kmh 21.0 mph33.8 kmh
Humidity 81% 50% 67%
Pressure 29.81 in1009.5 mb 29.56 in1001.0 mb -
Precipitation 0.22 in5.6 mm - -
Hour Temp Dew Point Humidity Winds Wind Gusts Pressure Precip Precip Rate Daily Precip Total
12:00 AM 45.4°F7.4°C 37.2°F2.9°C 73% 6.0 mph SSW9.7 kmh SSW 10.0 mph16.1 kmh 29.56 in1001.0 mb 0.00 in0.0 mm 0.00 in0.0 mm 0.22 in5.6 mm
12:05 AM 45.4°F7.4°C 37.6°F3.1°C 74% 3.0 mph SW4.8 kmh SW 10.0 mph16.1 kmh 29.56 in1001.0 mb 0.00 in0.0 mm 0.00 in0.0 mm 0.00 in0.0 mm
12:10 AM 45.3°F7.4°C 37.5°F3.1°C 74% 7.0 mph SW11.3 kmh SW 10.0 mph16.1 kmh 29.56 in1001.0 mb 0.00 in0.0 mm 0.00 in0.0 mm 0.00 in0.0 mm
12:15 AM 45.3°F7.4°C 37.5°F3.1°C 74% 9.0 mph WSW14.5 kmh WSW 9.0 mph14.5 kmh 29.56 in1001.0 mb 0.00 in0.0 mm 0.00 in0.0 mm 0.00 in0.0 mm
12:20 AM 45.2°F7.3°C 37.4°F3.0°C 74% 5.0 mph SW8.0 kmh SW 8.0 mph12.9 kmh 29.56 in1001.0 mb 0.00 in0.0 mm 0.00 in0.0 mm 0.00 in0.0 mm
12:25 AM 44.9°F7.2°C 37.1°F2.8°C 74% 4.0 mph SW6.4 kmh SW 7.0 mph11.3 kmh 29.56 in1001.0 mb 0.00 in0.0 mm 0.00 in0.0 mm 0.00 in0.0 mm
12:30 AM 44.7°F7.1°C 37.2°F2.9°C 75% 4.0 mph SW6.4 kmh SW 7.0 mph11.3 kmh 29.56 in1001.0 mb 0.00 in0.0 mm 0.00 in0.0 mm 0.00 in0.0 mm
12:35 AM 44.7°F7.1°C 37.2°F2.9°C 75% 3.0 mph SW4.8 kmh SW 10.0 mph16.1 kmh 29.56 in1001.0 mb 0.00 in0.0 mm 0.00 in0.0 mm 0.00 in0.0 mm
12:40 AM 44.7°F7.1°C 37.2°F2.9°C 75% 6.0 mph WSW9.7 kmh WSW 9.0 mph14.5 kmh 29.56 in1001.0 mb 0.00 in0.0 mm 0.00 in0.0 mm 0.00 in0.0 mm
12:45 AM 45.0°F7.2°C 37.5°F3.1°C 75% 8.0 mph SW12.9 kmh SW 14.0 mph22.5 kmh 29.57 in1001.4 mb 0.00 in0.0 mm 0.00 in0.0 mm 0.00 in0.0 mm
12:50 AM 45.1°F7.3°C 37.6°F3.1°C 75% 7.0 mph WSW11.3 kmh WSW 11.0 mph17.7 kmh 29.57 in1001.4 mb 0.00 in0.0 mm 0.00 in0.0 mm 0.00 in0.0 mm
12:55 AM 45.2°F7.3°C 37.7°F3.2°C 75% 5.0 mph SW8.0 kmh SW 11.0 mph17.7 kmh 29.57 in1001.4 mb 0.00 in0.0 mm 0.00 in0.0 mm 0.00 in0.0 mm
01:00 AM 45.4°F7.4°C 37.9°F3.3°C 75% 14.0 mph W22.5 kmh W 14.0 mph22.5 kmh 29.57 in1001.4 mb 0.00 in0.0 mm 0.00 in0.0 mm 0.00 in0.0 mm
01:05 AM 45.7°F7.6°C 37.8°F3.2°C 74% 9.0 mph SW14.5 kmh SW 16.0 mph25.7 kmh 29.57 in1001.4 mb 0.00 in0.0 mm 0.00 in0.0 mm 0.00 in0.0 mm
01:10 AM 45.6°F7.6°C 38.1°F3.4°C 75% 11.0 mph WSW17.7 kmh WSW 13.0 mph20.9 kmh 29.57 in1001.4 mb 0.00 in0.0 mm 0.00 in0.0 mm 0.00 in0.0 mm
01:15 AM 45.5°F7.5°C 38.0°F3.3°C 75% 13.0 mph WSW20.9 kmh WSW 15.0 mph24.1 kmh 29.57 in1001.4 mb 0.00 in0.0 mm 0.00 in0.0 mm 0.00 in0.0 mm
01:20 AM 45.5°F7.5°C 38.0°F3.3°C 75% 6.0 mph WSW9.7 kmh WSW 13.0 mph20.9 kmh 29.57 in1001.4 mb 0.00 in0.0 mm 0.00 in0.0 mm 0.00 in0.0 mm
01:25 AM 45.4°F7.4°C 37.9°F3.3°C 75% 5.0 mph W8.0 kmh W 11.0 mph17.7 kmh 29.57 in1001.4 mb 0.00 in0.0 mm 0.00 in0.0 mm 0.00 in0.0 mm
01:30 AM 45.3°F7.4°C 38.1°F3.4°C 76% 9.0 mph S14.5 kmh S 18.0 mph29.0 kmh 29.57 in1001.4 mb 0.00 in0.0 mm 0.00 in0.0 mm 0.00 in0.0 mm
01:35 AM 45.6°F7.6°C 38.1°F3.4°C 75% 5.0 mph WSW8.0 kmh WSW 20.0 mph32.2 kmh 29.57 in1001.4 mb 0.00 in0.0 mm 0.00 in0.0 mm 0.00 in0.0 mm
01:40 AM 45.7°F7.6°C 38.2°F3.4°C 75% 8.0 mph WSW12.9 kmh WSW 14.0 mph22.5 kmh 29.57 in1001.4 mb 0.00 in0.0 mm 0.00 in0.0 mm 0.00 in0.0 mm
01:45 AM 45.7°F7.6°C 38.2°F3.4°C 75% 13.0 mph WSW20.9 kmh WSW 20.0 mph32.2 kmh 29.57 in1001.4 mb 0.00 in0.0 mm 0.00 in0.0 mm 0.00 in0.0 mm
01:50 AM 45.7°F7.6°C 38.2°F3.4°C 75% 11.0 mph WSW17.7 kmh WSW 16.0 mph25.7 kmh 29.57 in1001.4 mb 0.00 in0.0 mm 0.00 in0.0 mm 0.00 in0.0 mm
01:55 AM 45.7°F7.6°C 38.2°F3.4°C 75% 7.0 mph W11.3 kmh W 21.0 mph33.8 kmh 29.57 in1001.4 mb 0.00 in0.0 mm 0.00 in0.0 mm 0.00 in0.0 mm
02:00 AM 45.7°F7.6°C 38.2°F3.4°C 75% 11.0 mph SW17.7 kmh SW 19.0 mph30.6 kmh 29.57 in1001.4 mb 0.00 in0.0 mm 0.00 in0.0 mm 0.00 in0.0 mm
02:05 AM 45.6°F7.6°C 38.4°F3.6°C 76% 11.0 mph WSW17.7 kmh WSW 16.0 mph25.7 kmh 29.57 in1001.4 mb 0.00 in0.0 mm 0.00 in0.0 mm 0.00 in0.0 mm
02:10 AM 45.6°F7.6°C 38.4°F3.6°C 76% 9.0 mph WSW14.5 kmh WSW 19.0 mph30.6 kmh 29.57 in1001.4 mb 0.00 in0.0 mm 0.00 in0.0 mm 0.00 in0.0 mm
02:15 AM 45.6°F7.6°C 38.4°F3.6°C 76% 10.0 mph SW16.1 kmh SW 21.0 mph33.8 kmh 29.58 in1001.7 mb 0.00 in0.0 mm 0.00 in0.0 mm 0.00 in0.0 mm
02:20 AM 45.5°F7.5°C 38.3°F3.5°C 76% 9.0 mph SW14.5 kmh SW 18.0 mph29.0 kmh 29.57 in1001.4 mb 0.00 in0.0 mm 0.00 in0.0 mm 0.00 in0.0 mm
02:25 AM 45.4°F7.4°C 38.2°F3.4°C 76% 8.0 mph SW12.9 kmh SW 15.0 mph24.1 kmh 29.58 in1001.7 mb 0.00 in0.0 mm 0.00 in0.0 mm 0.00 in0.0 mm
02:30 AM 45.5°F7.5°C 38.3°F3.5°C 76% 13.0 mph WSW20.9 kmh WSW 18.0 mph29.0 kmh 29.57 in1001.4 mb 0.00 in0.0 mm 0.00 in0.0 mm 0.00 in0.0 mm
02:35 AM 45.5°F7.5°C 38.3°F3.5°C 76% 6.0 mph WSW9.7 kmh WSW 17.0 mph27.4 kmh 29.58 in1001.7 mb 0.00 in0.0 mm 0.00 in0.0 mm 0.00 in0.0 mm
02:40 AM 45.4°F7.4°C 38.6°F3.7°C 77% 7.0 mph S11.3 kmh S 21.0 mph33.8 kmh 29.58 in1001.7 mb 0.00 in0.0 mm 0.00 in0.0 mm 0.00 in0.0 mm
02:45 AM 45.4°F7.4°C 38.6°F3.7°C 77% 16.0 mph SW25.7 kmh SW 16.0 mph25.7 kmh 29.58 in1001.7 mb 0.00 in0.0 mm 0.00 in0.0 mm 0.00 in0.0 mm
02:50 AM 45.4°F7.4°C 38.6°F3.7°C 77% 9.0 mph SW14.5 kmh SW 19.0 mph30.6 kmh 29.58 in1001.7 mb 0.00 in0.0 mm 0.00 in0.0 mm 0.00 in0.0 mm
02:55 AM 45.5°F7.5°C 38.7°F3.7°C 77% 11.0 mph SW17.7 kmh SW 23.0 mph37.0 kmh 29.58 in1001.7 mb 0.00 in0.0 mm 0.00 in0.0 mm 0.00 in0.0 mm
03:00 AM 45.4°F7.4°C 38.6°F3.7°C 77% 10.0 mph SW16.1 kmh SW 21.0 mph33.8 kmh 29.58 in1001.7 mb 0.00 in0.0 mm 0.00 in0.0 mm 0.00 in0.0 mm
03:05 AM 45.6°F7.6°C 38.8°F3.8°C 77% 13.0 mph SW20.9 kmh SW 20.0 mph32.2 kmh 29.58 in1001.7 mb 0.00 in0.0 mm 0.00 in0.0 mm 0.00 in0.0 mm
03:10 AM 45.5°F7.5°C 38.7°F3.7°C 77% 16.0 mph WSW25.7 kmh WSW 18.0 mph29.0 kmh 29.58 in1001.7 mb 0.00 in0.0 mm 0.00 in0.0 mm 0.00 in0.0 mm
03:15 AM 45.6°F7.6°C 38.8°F3.8°C 77% 5.0 mph WSW8.0 kmh WSW 21.0 mph33.8 kmh 29.58 in1001.7 mb 0.00 in0.0 mm 0.00 in0.0 mm 0.00 in0.0 mm
03:20 AM 45.8°F7.7°C 39.0°F3.9°C 77% 7.0 mph W11.3 kmh W 18.0 mph29.0 kmh 29.58 in1001.7 mb 0.00 in0.0 mm 0.00 in0.0 mm 0.00 in0.0 mm
03:25 AM 45.8°F7.7°C 39.0°F3.9°C 77% 17.0 mph SSW27.4 kmh SSW 19.0 mph30.6 kmh 29.58 in1001.7 mb 0.00 in0.0 mm 0.00 in0.0 mm 0.00 in0.0 mm
03:30 AM 45.8°F7.7°C 39.0°F3.9°C 77% 6.0 mph SW9.7 kmh SW 19.0 mph30.6 kmh 29.59 in1002.0 mb 0.00 in0.0 mm 0.00 in0.0 mm 0.00 in0.0 mm
03:35 AM 45.8°F7.7°C 39.0°F3.9°C 77% 15.0 mph WSW24.1 kmh WSW 23.0 mph37.0 kmh 29.59 in1002.0 mb 0.00 in0.0 mm 0.00 in0.0 mm 0.00 in0.0 mm
03:40 AM 45.9°F7.7°C 39.1°F3.9°C 77% 13.0 mph WSW20.9 kmh WSW 20.0 mph32.2 kmh 29.59 in1002.0 mb 0.00 in0.0 mm 0.00 in0.0 mm 0.00 in0.0 mm
03:45 AM 46.0°F7.8°C 38.8°F3.8°C 76% 11.0 mph WSW17.7 kmh WSW 19.0 mph30.6 kmh 29.59 in1002.0 mb 0.00 in0.0 mm 0.00 in0.0 mm 0.00 in0.0 mm
03:50 AM 46.1°F7.8°C 38.9°F3.8°C 76% 10.0 mph WSW16.1 kmh WSW 19.0 mph30.6 kmh 29.59 in1002.0 mb 0.00 in0.0 mm 0.00 in0.0 mm 0.00 in0.0 mm
03:55 AM 46.2°F7.9°C 39.0°F3.9°C 76% 4.0 mph SW6.4 kmh SW 19.0 mph30.6 kmh 29.59 in1002.0 mb 0.00 in0.0 mm 0.00 in0.0 mm 0.00 in0.0 mm
04:00 AM 46.1°F7.8°C 38.9°F3.8°C 76% 3.0 mph SSW4.8 kmh SSW 15.0 mph24.1 kmh 29.59 in1002.0 mb 0.00 in0.0 mm 0.00 in0.0 mm 0.00 in0.0 mm
04:05 AM 46.0°F7.8°C 38.8°F3.8°C 76% 12.0 mph WSW19.3 kmh WSW 15.0 mph24.1 kmh 29.60 in1002.4 mb 0.00 in0.0 mm 0.00 in0.0 mm 0.00 in0.0 mm
04:10 AM 46.0°F7.8°C 38.8°F3.8°C 76% 7.0 mph SW11.3 kmh SW 16.0 mph25.7 kmh 29.60 in1002.4 mb 0.00 in0.0 mm 0.00 in0.0 mm 0.00 in0.0 mm
04:15 AM 46.0°F7.8°C 38.8°F3.8°C 76% 17.0 mph SW27.4 kmh SW 23.0 mph37.0 kmh 29.60 in1002.4 mb 0.00 in0.0 mm 0.00 in0.0 mm 0.00 in0.0 mm
04:20 AM 46.1°F7.8°C 38.9°F3.8°C 76% 6.0 mph SW9.7 kmh SW 22.0 mph35.4 kmh 29.60 in1002.4 mb 0.00 in0.0 mm 0.00 in0.0 mm 0.00 in0.0 mm
04:25 AM 46.1°F7.8°C 38.9°F3.8°C 76% 5.0 mph WSW8.0 kmh WSW 16.0 mph25.7 kmh 29.60 in1002.4 mb 0.00 in0.0 mm 0.00 in0.0 mm 0.00 in0.0 mm
04:30 AM 46.0°F7.8°C 38.8°F3.8°C 76% 7.0 mph S11.3 kmh S 21.0 mph33.8 kmh 29.61 in1002.7 mb 0.00 in0.0 mm 0.00 in0.0 mm 0.00 in0.0 mm
04:35 AM 46.0°F7.8°C 38.8°F3.8°C 76% 4.0 mph SSE6.4 kmh SSE 17.0 mph27.4 kmh 29.61 in1002.7 mb 0.00 in0.0 mm 0.00 in0.0 mm 0.00 in0.0 mm
04:40 AM 46.0°F7.8°C 38.5°F3.6°C 75% 15.0 mph WSW24.1 kmh WSW 21.0 mph33.8 kmh 29.61 in1002.7 mb 0.00 in0.0 mm 0.00 in0.0 mm 0.00 in0.0 mm
04:45 AM 46.1°F7.8°C 38.2°F3.4°C 74% 7.0 mph WSW11.3 kmh WSW 24.0 mph38.6 kmh 29.61 in1002.7 mb 0.00 in0.0 mm 0.00 in0.0 mm 0.00 in0.0 mm
04:50 AM 46.1°F7.8°C 38.2°F3.4°C 74% 19.0 mph SSW30.6 kmh SSW 26.0 mph41.8 kmh 29.61 in1002.7 mb 0.00 in0.0 mm 0.00 in0.0 mm 0.00 in0.0 mm
04:55 AM 46.1°F7.8°C 38.2°F3.4°C 74% 12.0 mph SW19.3 kmh SW 22.0 mph35.4 kmh 29.61 in1002.7 mb 0.00 in0.0 mm 0.00 in0.0 mm 0.00 in0.0 mm
05:00 AM 46.1°F7.8°C 37.9°F3.3°C 73% 16.0 mph SW25.7 kmh SW 21.0 mph33.8 kmh 29.61 in1002.7 mb 0.00 in0.0 mm 0.00 in0.0 mm 0.00 in0.0 mm
05:05 AM 45.9°F7.7°C 38.0°F3.3°C 74% 6.0 mph WSW9.7 kmh WSW 19.0 mph30.6 kmh 29.62 in1003.0 mb 0.00 in0.0 mm 0.00 in0.0 mm 0.00 in0.0 mm
05:10 AM 45.9°F7.7°C 38.0°F3.3°C 74% 12.0 mph WSW19.3 kmh WSW 21.0 mph33.8 kmh 29.62 in1003.0 mb 0.00 in0.0 mm 0.00 in0.0 mm 0.00 in0.0 mm
05:15 AM 46.0°F7.8°C 38.1°F3.4°C 74% 10.0 mph SW16.1 kmh SW 21.0 mph33.8 kmh 29.63 in1003.4 mb 0.00 in0.0 mm 0.00 in0.0 mm 0.00 in0.0 mm
05:20 AM 46.0°F7.8°C 37.8°F3.2°C 73% 10.0 mph SW16.1 kmh SW 21.0 mph33.8 kmh 29.63 in1003.4 mb 0.00 in0.0 mm 0.00 in0.0 mm 0.00 in0.0 mm
05:25 AM 45.8°F7.7°C 37.6°F3.1°C 73% 9.0 mph WSW14.5 kmh WSW 19.0 mph30.6 kmh 29.63 in1003.4 mb 0.00 in0.0 mm 0.00 in0.0 mm 0.00 in0.0 mm
05:30 AM 45.8°F7.7°C 37.6°F3.1°C 73% 7.0 mph SW11.3 kmh SW 18.0 mph29.0 kmh 29.63 in1003.4 mb 0.00 in0.0 mm 0.00 in0.0 mm 0.00 in0.0 mm
05:35 AM 45.8°F7.7°C 37.2°F2.9°C 72% 22.0 mph WSW35.4 kmh WSW 25.0 mph40.2 kmh 29.63 in1003.4 mb 0.00 in0.0 mm 0.00 in0.0 mm 0.00 in0.0 mm
05:40 AM 45.7°F7.6°C 37.1°F2.8°C 72% 12.0 mph WSW19.3 kmh WSW 21.0 mph33.8 kmh 29.63 in1003.4 mb 0.00 in0.0 mm 0.00 in0.0 mm 0.00 in0.0 mm
05:45 AM 45.4°F7.4°C 36.5°F2.5°C 71% 8.0 mph WSW12.9 kmh WSW 21.0 mph33.8 kmh 29.63 in1003.4 mb 0.00 in0.0 mm 0.00 in0.0 mm 0.00 in0.0 mm
05:50 AM 45.2°F7.3°C 36.7°F2.6°C 72% 10.0 mph S16.1 kmh S 21.0 mph33.8 kmh 29.63 in1003.4 mb 0.00 in0.0 mm 0.00 in0.0 mm 0.00 in0.0 mm
05:55 AM 45.1°F7.3°C 36.2°F2.3°C 71% 18.0 mph SW29.0 kmh SW 18.0 mph29.0 kmh 29.63 in1003.4 mb 0.00 in0.0 mm 0.00 in0.0 mm 0.00 in0.0 mm
06:00 AM 44.9°F7.2°C 36.0°F2.2°C 71% 11.0 mph SW17.7 kmh SW 20.0 mph32.2 kmh 29.64 in1003.7 mb 0.00 in0.0 mm 0.00 in0.0 mm 0.00 in0.0 mm
06:05 AM 44.8°F7.1°C 35.9°F2.2°C 71% 6.0 mph SSW9.7 kmh SSW 20.0 mph32.2 kmh 29.64 in1003.7 mb 0.00 in0.0 mm 0.00 in0.0 mm 0.00 in0.0 mm
06:10 AM 44.8°F7.1°C 35.9°F2.2°C 71% 10.0 mph WNW16.1 kmh WNW 16.0 mph25.7 kmh 29.64 in1003.7 mb 0.00 in0.0 mm 0.00 in0.0 mm 0.00 in0.0 mm
06:15 AM 44.6°F7.0°C 35.7°F2.1°C 71% 11.0 mph WSW17.7 kmh WSW 19.0 mph30.6 kmh 29.65 in1004.1 mb 0.00 in0.0 mm 0.00 in0.0 mm 0.00 in0.0 mm
06:20 AM 44.4°F6.9°C 35.5°F1.9°C 71% 5.0 mph SW8.0 kmh SW 14.0 mph22.5 kmh 29.65 in1004.1 mb 0.00 in0.0 mm 0.00 in0.0 mm 0.00 in0.0 mm
06:25 AM 44.5°F6.9°C 35.6°F2.0°C 71% 12.0 mph W19.3 kmh W 18.0 mph29.0 kmh 29.65 in1004.1 mb 0.00 in0.0 mm 0.00 in0.0 mm 0.00 in0.0 mm
06:30 AM 44.4°F6.9°C 35.5°F1.9°C 71% 11.0 mph SW17.7 kmh SW 17.0 mph27.4 kmh 29.65 in1004.1 mb 0.00 in0.0 mm 0.00 in0.0 mm 0.00 in0.0 mm
06:35 AM 44.3°F6.8°C 35.4°F1.9°C 71% 9.0 mph W14.5 kmh W 22.0 mph35.4 kmh 29.65 in1004.1 mb 0.00 in0.0 mm 0.00 in0.0 mm 0.00 in0.0 mm
06:40 AM 44.2°F6.8°C 35.4°F1.9°C 71% 12.0 mph SW19.3 kmh SW 19.0 mph30.6 kmh 29.66 in1004.4 mb 0.00 in0.0 mm 0.00 in0.0 mm 0.00 in0.0 mm
06:45 AM 44.3°F6.8°C 35.4°F1.9°C 71% 10.0 mph WSW16.1 kmh WSW 19.0 mph30.6 kmh 29.66 in1004.4 mb 0.00 in0.0 mm 0.00 in0.0 mm 0.00 in0.0 mm
06:50 AM 44.0°F6.7°C 35.5°F1.9°C 72% 16.0 mph SW25.7 kmh SW 19.0 mph30.6 kmh 29.66 in1004.4 mb 0.00 in0.0 mm 0.00 in0.0 mm 0.00 in0.0 mm
06:55 AM 44.1°F6.7°C 35.6°F2.0°C 72% 6.0 mph SSW9.7 kmh SSW 20.0 mph32.2 kmh 29.66 in1004.4 mb 0.00 in0.0 mm 0.00 in0.0 mm 0.00 in0.0 mm
07:00 AM 44.0°F6.7°C 35.5°F1.9°C 72% 14.0 mph SW22.5 kmh SW 17.0 mph27.4 kmh 29.66 in1004.4 mb 0.00 in0.0 mm 0.00 in0.0 mm 0.00 in0.0 mm
07:05 AM 43.9°F6.6°C 35.4°F1.9°C 72% 16.0 mph SSW25.7 kmh SSW 20.0 mph32.2 kmh 29.66 in1004.4 mb 0.00 in0.0 mm 0.00 in0.0 mm 0.00 in0.0 mm
07:10 AM 44.0°F6.7°C 35.2°F1.8°C 71% 13.0 mph WSW20.9 kmh WSW 23.0 mph37.0 kmh 29.66 in1004.4 mb 0.00 in0.0 mm 0.00 in0.0 mm 0.00 in0.0 mm
07:15 AM 44.0°F6.7°C 35.2°F1.8°C 71% 14.0 mph SSW22.5 kmh SSW 19.0 mph30.6 kmh 29.66 in1004.4 mb 0.00 in0.0 mm 0.00 in0.0 mm 0.00 in0.0 mm
07:20 AM 44.0°F6.7°C 35.2°F1.8°C 71% 10.0 mph SSW16.1 kmh SSW 17.0 mph27.4 kmh 29.66 in1004.4 mb 0.00 in0.0 mm 0.00 in0.0 mm 0.00 in0.0 mm
07:25 AM 44.0°F6.7°C 35.2°F1.8°C 71% 7.0 mph WSW11.3 kmh WSW 16.0 mph25.7 kmh 29.67 in1004.7 mb 0.00 in0.0 mm 0.00 in0.0 mm 0.00 in0.0 mm
07:30 AM 44.0°F6.7°C 35.5°F1.9°C 72% 9.0 mph SW14.5 kmh SW 13.0 mph20.9 kmh 29.67 in1004.7 mb 0.00 in0.0 mm 0.00 in0.0 mm 0.00 in0.0 mm
07:35 AM 44.3°F6.8°C 35.4°F1.9°C 71% 11.0 mph SW17.7 kmh SW 17.0 mph27.4 kmh 29.67 in1004.7 mb 0.00 in0.0 mm 0.00 in0.0 mm 0.00 in0.0 mm
07:40 AM 44.4°F6.9°C 35.2°F1.8°C 70% 16.0 mph SW25.7 kmh SW 18.0 mph29.0 kmh 29.66 in1004.4 mb 0.00 in0.0 mm 0.00 in0.0 mm 0.00 in0.0 mm
07:45 AM 44.5°F6.9°C 35.3°F1.8°C 70% 15.0 mph SW24.1 kmh SW 18.0 mph29.0 kmh 29.67 in1004.7 mb 0.00 in0.0 mm 0.00 in0.0 mm 0.00 in0.0 mm
07:50 AM 44.4°F6.9°C 35.2°F1.8°C 70% 14.0 mph SSW22.5 kmh SSW 17.0 mph27.4 kmh 29.67 in1004.7 mb 0.00 in0.0 mm 0.00 in0.0 mm 0.00 in0.0 mm
07:55 AM 44.3°F6.8°C 35.1°F1.7°C 70% 10.0 mph SW16.1 kmh SW 19.0 mph30.6 kmh 29.67 in1004.7 mb 0.00 in0.0 mm 0.00 in0.0 mm 0.00 in0.0 mm
08:00 AM 44.3°F6.8°C 35.1°F1.7°C 70% 9.0 mph SW14.5 kmh SW 19.0 mph30.6 kmh 29.67 in1004.7 mb 0.00 in0.0 mm 0.00 in0.0 mm 0.00 in0.0 mm
08:05 AM 44.5°F6.9°C 34.9°F1.6°C 69% 8.0 mph SW12.9 kmh SW 16.0 mph25.7 kmh 29.67 in1004.7 mb 0.00 in0.0 mm 0.00 in0.0 mm 0.00 in0.0 mm
08:10 AM 44.9°F7.2°C 34.2°F1.2°C 66% 10.0 mph WSW16.1 kmh WSW 21.0 mph33.8 kmh 29.67 in1004.7 mb 0.00 in0.0 mm 0.00 in0.0 mm 0.00 in0.0 mm
08:15 AM 45.2°F7.3°C 35.2°F1.8°C 68% 10.0 mph SW16.1 kmh SW 16.0 mph25.7 kmh 29.67 in1004.7 mb 0.00 in0.0 mm 0.00 in0.0 mm 0.00 in0.0 mm
08:20 AM 45.4°F7.4°C 34.7°F1.5°C 66% 12.0 mph SW19.3 kmh SW 20.0 mph32.2 kmh 29.67 in1004.7 mb 0.00 in0.0 mm 0.00 in0.0 mm 0.00 in0.0 mm
08:25 AM 45.7°F7.6°C 35.0°F1.7°C 66% 7.0 mph SW11.3 kmh SW 17.0 mph27.4 kmh 29.67 in1004.7 mb 0.00 in0.0 mm 0.00 in0.0 mm 0.00 in0.0 mm
08:30 AM 45.9°F7.7°C 35.1°F1.7°C 66% 9.0 mph SSW14.5 kmh SSW 15.0 mph24.1 kmh 29.68 in1005.1 mb 0.00 in0.0 mm 0.00 in0.0 mm 0.00 in0.0 mm
08:35 AM 46.1°F7.8°C 34.9°F1.6°C 65% 5.0 mph W8.0 kmh W 17.0 mph27.4 kmh 29.68 in1005.1 mb 0.00 in0.0 mm 0.00 in0.0 mm 0.00 in0.0 mm
08:40 AM 46.4°F8.0°C 34.4°F1.3°C 63% 9.0 mph WSW14.5 kmh WSW 26.0 mph41.8 kmh 29.67 in1004.7 mb 0.00 in0.0 mm 0.00 in0.0 mm 0.00 in0.0 mm
08:45 AM 46.5°F8.1°C 34.9°F1.6°C 64% 7.0 mph W11.3 kmh W 19.0 mph30.6 kmh 29.67 in1004.7 mb 0.00 in0.0 mm 0.00 in0.0 mm 0.00 in0.0 mm
08:50 AM 46.8°F8.2°C 35.2°F1.8°C 64% 14.0 mph WSW22.5 kmh WSW 22.0 mph35.4 kmh 29.67 in1004.7 mb 0.00 in0.0 mm 0.00 in0.0 mm 0.00 in0.0 mm
08:55 AM 47.0°F8.3°C 35.0°F1.7°C 63% 10.0 mph WSW16.1 kmh WSW 23.0 mph37.0 kmh 29.68 in1005.1 mb 0.00 in0.0 mm 0.00 in0.0 mm 0.00 in0.0 mm
09:00 AM 47.1°F8.4°C 34.3°F1.3°C 61% 18.0 mph W29.0 kmh W 24.0 mph38.6 kmh 29.68 in1005.1 mb 0.00 in0.0 mm 0.00 in0.0 mm 0.00 in0.0 mm
09:05 AM 47.4°F8.6°C 35.0°F1.7°C 62% 7.0 mph SW11.3 kmh SW 21.0 mph33.8 kmh 29.67 in1004.7 mb 0.00 in0.0 mm 0.00 in0.0 mm 0.00 in0.0 mm
09:10 AM 47.6°F8.7°C 34.8°F1.6°C 61% 17.0 mph WSW27.4 kmh WSW 23.0 mph37.0 kmh 29.68 in1005.1 mb 0.00 in0.0 mm 0.00 in0.0 mm 0.00 in0.0 mm
09:15 AM 47.7°F8.7°C 34.5°F1.4°C 60% 11.0 mph W17.7 kmh W 20.0 mph32.2 kmh 29.68 in1005.1 mb 0.00 in0.0 mm 0.00 in0.0 mm 0.00 in0.0 mm
09:20 AM 48.0°F8.9°C 34.7°F1.5°C 60% 14.0 mph SW22.5 kmh SW 22.0 mph35.4 kmh 29.68 in1005.1 mb 0.00 in0.0 mm 0.00 in0.0 mm 0.00 in0.0 mm
09:25 AM 48.3°F9.1°C 35.4°F1.9°C 61% 6.0 mph W9.7 kmh W 19.0 mph30.6 kmh 29.68 in1005.1 mb 0.00 in0.0 mm 0.00 in0.0 mm 0.00 in0.0 mm
09:30 AM 48.6°F9.2°C 34.9°F1.6°C 59% 7.0 mph WSW11.3 kmh WSW 28.0 mph45.1 kmh 29.68 in1005.1 mb 0.00 in0.0 mm 0.00 in0.0 mm 0.00 in0.0 mm
09:35 AM 48.7°F9.3°C 34.5°F1.4°C 58% 16.0 mph SW25.7 kmh SW 25.0 mph40.2 kmh 29.68 in1005.1 mb 0.00 in0.0 mm 0.00 in0.0 mm 0.00 in0.0 mm
09:40 AM 49.0°F9.4°C 34.8°F1.6°C 58% 20.0 mph SW32.2 kmh SW 29.0 mph46.7 kmh 29.68 in1005.1 mb 0.00 in0.0 mm 0.00 in0.0 mm 0.00 in0.0 mm
09:45 AM 49.1°F9.5°C 34.9°F1.6°C 58% 15.0 mph SW24.1 kmh SW 26.0 mph41.8 kmh 29.68 in1005.1 mb 0.00 in0.0 mm 0.00 in0.0 mm 0.00 in0.0 mm
09:50 AM 49.3°F9.6°C 35.1°F1.7°C 58% 13.0 mph SW20.9 kmh SW 25.0 mph40.2 kmh 29.68 in1005.1 mb 0.00 in0.0 mm 0.00 in0.0 mm 0.00 in0.0 mm
09:55 AM 49.6°F9.8°C 35.4°F1.9°C 58% 12.0 mph SW19.3 kmh SW 26.0 mph41.8 kmh 29.68 in1005.1 mb 0.00 in0.0 mm 0.00 in0.0 mm 0.00 in0.0 mm
10:00 AM 50.0°F10.0°C 35.8°F2.1°C 58% 15.0 mph WSW24.1 kmh WSW 22.0 mph35.4 kmh 29.68 in1005.1 mb 0.00 in0.0 mm 0.00 in0.0 mm 0.00 in0.0 mm
10:05 AM 50.4°F10.2°C 35.3°F1.8°C 56% 12.0 mph SSW19.3 kmh SSW 22.0 mph35.4 kmh 29.67 in1004.7 mb 0.00 in0.0 mm 0.00 in0.0 mm 0.00 in0.0 mm
10:10 AM 50.6°F10.3°C 35.4°F1.9°C 56% 8.0 mph WSW12.9 kmh WSW 22.0 mph35.4 kmh 29.67 in1004.7 mb 0.00 in0.0 mm 0.00 in0.0 mm 0.00 in0.0 mm
10:15 AM 51.0°F10.6°C 35.4°F1.9°C 55% 7.0 mph SSW11.3 kmh SSW 28.0 mph45.1 kmh 29.67 in1004.7 mb 0.00 in0.0 mm 0.00 in0.0 mm 0.00 in0.0 mm
10:20 AM 51.3°F10.7°C 35.6°F2.0°C 55% 16.0 mph W25.7 kmh W 24.0 mph38.6 kmh 29.67 in1004.7 mb 0.00 in0.0 mm 0.00 in0.0 mm 0.00 in0.0 mm
10:25 AM 51.3°F10.7°C 35.2°F1.8°C 54% 25.0 mph WSW40.2 kmh WSW 29.0 mph46.7 kmh 29.67 in1004.7 mb 0.00 in0.0 mm 0.00 in0.0 mm 0.00 in0.0 mm
10:30 AM 51.2°F10.7°C 35.1°F1.7°C 54% 16.0 mph WSW25.7 kmh WSW 31.0 mph49.9 kmh 29.67 in1004.7 mb 0.00 in0.0 mm 0.00 in0.0 mm 0.00 in0.0 mm
10:35 AM 51.2°F10.7°C 35.1°F1.7°C 54% 19.0 mph WSW30.6 kmh WSW 30.0 mph48.3 kmh 29.67 in1004.7 mb 0.00 in0.0 mm 0.00 in0.0 mm 0.00 in0.0 mm
10:40 AM 50.8°F10.4°C 34.7°F1.5°C 54% 17.0 mph SW27.4 kmh SW 28.0 mph45.1 kmh 29.67 in1004.7 mb 0.00 in0.0 mm 0.00 in0.0 mm 0.00 in0.0 mm
10:45 AM 50.8°F10.4°C 35.2°F1.8°C 55% 20.0 mph SSW32.2 kmh SSW 33.0 mph53.1 kmh 29.67 in1004.7 mb 0.00 in0.0 mm 0.00 in0.0 mm 0.00 in0.0 mm
10:50 AM 51.2°F10.7°C 35.1°F1.7°C 54% 22.0 mph W35.4 kmh W 32.0 mph51.5 kmh 29.67 in1004.7 mb 0.00 in0.0 mm 0.00 in0.0 mm 0.00 in0.0 mm
10:55 AM 51.3°F10.7°C 35.2°F1.8°C 54% 19.0 mph W30.6 kmh W 27.0 mph43.5 kmh 29.67 in1004.7 mb 0.00 in0.0 mm 0.00 in0.0 mm 0.00 in0.0 mm
11:00 AM 51.3°F10.7°C 34.2°F1.2°C 52% 12.0 mph SW19.3 kmh SW 27.0 mph43.5 kmh 29.67 in1004.7 mb 0.00 in0.0 mm 0.00 in0.0 mm 0.00 in0.0 mm
11:05 AM 51.9°F11.1°C 35.7°F2.1°C 54% 18.0 mph WSW29.0 kmh WSW 25.0 mph40.2 kmh 29.67 in1004.7 mb 0.00 in0.0 mm 0.00 in0.0 mm 0.00 in0.0 mm
11:10 AM 52.5°F11.4°C 35.8°F2.1°C 53% 13.0 mph W20.9 kmh W 24.0 mph38.6 kmh 29.67 in1004.7 mb 0.00 in0.0 mm 0.00 in0.0 mm 0.00 in0.0 mm
11:15 AM 52.6°F11.4°C 35.4°F1.9°C 52% 17.0 mph W27.4 kmh W 28.0 mph45.1 kmh 29.66 in1004.4 mb 0.00 in0.0 mm 0.00 in0.0 mm 0.00 in0.0 mm
11:20 AM 52.5°F11.4°C 34.8°F1.6°C 51% 15.0 mph WSW24.1 kmh WSW 31.0 mph49.9 kmh 29.67 in1004.7 mb 0.00 in0.0 mm 0.00 in0.0 mm 0.00 in0.0 mm
11:25 AM 52.3°F11.3°C 34.7°F1.5°C 51% 12.0 mph WSW19.3 kmh WSW 28.0 mph45.1 kmh 29.68 in1005.1 mb 0.00 in0.0 mm 0.00 in0.0 mm 0.00 in0.0 mm
11:30 AM 52.2°F11.2°C 35.1°F1.7°C 52% 25.0 mph SW40.2 kmh SW 33.0 mph53.1 kmh 29.68 in1005.1 mb 0.00 in0.0 mm 0.00 in0.0 mm 0.00 in0.0 mm
11:35 AM 52.1°F11.2°C 34.5°F1.4°C 51% 20.0 mph WSW32.2 kmh WSW 31.0 mph49.9 kmh 29.67 in1004.7 mb 0.00 in0.0 mm 0.00 in0.0 mm 0.00 in0.0 mm
11:40 AM 51.7°F10.9°C 34.6°F1.4°C 52% 15.0 mph WSW24.1 kmh WSW 29.0 mph46.7 kmh 29.68 in1005.1 mb 0.00 in0.0 mm 0.00 in0.0 mm 0.00 in0.0 mm
11:45 AM 51.6°F10.9°C 35.0°F1.7°C 53% 19.0 mph S30.6 kmh S 26.0 mph41.8 kmh 29.67 in1004.7 mb 0.00 in0.0 mm 0.00 in0.0 mm 0.00 in0.0 mm
11:50 AM 51.7°F10.9°C 34.6°F1.4°C 52% 30.0 mph WSW48.3 kmh WSW 31.0 mph49.9 kmh 29.68 in1005.1 mb 0.00 in0.0 mm 0.00 in0.0 mm 0.00 in0.0 mm
11:55 AM 51.7°F10.9°C 35.1°F1.7°C 53% 23.0 mph SW37.0 kmh SW 32.0 mph51.5 kmh 29.68 in1005.1 mb 0.00 in0.0 mm 0.00 in0.0 mm 0.00 in0.0 mm
12:00 PM 51.5°F10.8°C 34.9°F1.6°C 53% 19.0 mph SW30.6 kmh SW 29.0 mph46.7 kmh 29.68 in1005.1 mb 0.00 in0.0 mm 0.00 in0.0 mm 0.00 in0.0 mm
12:05 PM 51.3°F10.7°C 35.2°F1.8°C 54% 17.0 mph WSW27.4 kmh WSW 30.0 mph48.3 kmh 29.68 in1005.1 mb 0.00 in0.0 mm 0.00 in0.0 mm 0.00 in0.0 mm
12:10 PM 51.2°F10.7°C 35.1°F1.7°C 54% 21.0 mph WSW33.8 kmh WSW 33.0 mph53.1 kmh 29.68 in1005.1 mb 0.00 in0.0 mm 0.00 in0.0 mm 0.00 in0.0 mm
12:15 PM 51.2°F10.7°C 35.5°F1.9°C 55% 18.0 mph WSW29.0 kmh WSW 29.0 mph46.7 kmh 29.68 in1005.1 mb 0.00 in0.0 mm 0.00 in0.0 mm 0.00 in0.0 mm
12:20 PM 52.0°F11.1°C 36.3°F2.4°C 55% 13.0 mph SW20.9 kmh SW 22.0 mph35.4 kmh 29.68 in1005.1 mb 0.00 in0.0 mm 0.00 in0.0 mm 0.00 in0.0 mm
12:25 PM 52.5°F11.4°C 35.8°F2.1°C 53% 14.0 mph WSW22.5 kmh WSW 22.0 mph35.4 kmh 29.68 in1005.1 mb 0.00 in0.0 mm 0.00 in0.0 mm 0.00 in0.0 mm
12:30 PM 52.7°F11.5°C 36.5°F2.5°C 54% 9.0 mph W14.5 kmh W 21.0 mph33.8 kmh 29.68 in1005.1 mb 0.00 in0.0 mm 0.00 in0.0 mm 0.00 in0.0 mm
12:35 PM 52.4°F11.3°C 36.2°F2.3°C 54% 9.0 mph WSW14.5 kmh WSW 22.0 mph35.4 kmh 29.67 in1004.7 mb 0.00 in0.0 mm 0.00 in0.0 mm 0.00 in0.0 mm
12:40 PM 52.3°F11.3°C 36.1°F2.3°C 54% 20.0 mph WSW32.2 kmh WSW 20.0 mph32.2 kmh 29.67 in1004.7 mb 0.00 in0.0 mm 0.00 in0.0 mm 0.00 in0.0 mm
12:45 PM 52.4°F11.3°C 36.2°F2.3°C 54% 15.0 mph WSW24.1 kmh WSW 30.0 mph48.3 kmh 29.68 in1005.1 mb 0.00 in0.0 mm 0.00 in0.0 mm 0.00 in0.0 mm
12:50 PM 52.1°F11.2°C 35.4°F1.9°C 53% 16.0 mph WSW25.7 kmh WSW 23.0 mph37.0 kmh 29.68 in1005.1 mb 0.00 in0.0 mm 0.00 in0.0 mm 0.00 in0.0 mm
12:55 PM 52.2°F11.2°C 35.1°F1.7°C 52% 19.0 mph WSW30.6 kmh WSW 24.0 mph38.6 kmh 29.68 in1005.1 mb 0.00 in0.0 mm 0.00 in0.0 mm 0.00 in0.0 mm
01:00 PM 52.6°F11.4°C 36.8°F2.7°C 55% 13.0 mph WSW20.9 kmh WSW 22.0 mph35.4 kmh 29.67 in1004.7 mb 0.00 in0.0 mm 0.00 in0.0 mm 0.00 in0.0 mm
01:05 PM 53.5°F11.9°C 37.2°F2.9°C 54% 18.0 mph WSW29.0 kmh WSW 27.0 mph43.5 kmh 29.67 in1004.7 mb 0.00 in0.0 mm 0.00 in0.0 mm 0.00 in0.0 mm
01:10 PM 53.7°F12.1°C 36.0°F2.2°C 51% 17.0 mph SW27.4 kmh SW 25.0 mph40.2 kmh 29.67 in1004.7 mb 0.00 in0.0 mm 0.00 in0.0 mm 0.00 in0.0 mm
01:15 PM 53.9°F12.2°C 36.1°F2.3°C 51% 16.0 mph S25.7 kmh S 24.0 mph38.6 kmh 29.66 in1004.4 mb 0.00 in0.0 mm 0.00 in0.0 mm 0.00 in0.0 mm
01:20 PM 54.0°F12.2°C 35.7°F2.1°C 50% 20.0 mph WSW32.2 kmh WSW 27.0 mph43.5 kmh 29.66 in1004.4 mb 0.00 in0.0 mm 0.00 in0.0 mm 0.00 in0.0 mm
01:25 PM 53.2°F11.8°C 35.5°F1.9°C 51% 13.0 mph WSW20.9 kmh WSW 26.0 mph41.8 kmh 29.66 in1004.4 mb 0.00 in0.0 mm 0.00 in0.0 mm 0.00 in0.0 mm
01:30 PM 53.2°F11.8°C 36.0°F2.2°C 52% 21.0 mph W33.8 kmh W 29.0 mph46.7 kmh 29.66 in1004.4 mb 0.00 in0.0 mm 0.00 in0.0 mm 0.00 in0.0 mm
01:35 PM 53.1°F11.7°C 35.9°F2.2°C 52% 15.0 mph W24.1 kmh W 26.0 mph41.8 kmh 29.66 in1004.4 mb 0.00 in0.0 mm 0.00 in0.0 mm 0.00 in0.0 mm
01:40 PM 52.6°F11.4°C 35.4°F1.9°C 52% 13.0 mph WSW20.9 kmh WSW 28.0 mph45.1 kmh 29.67 in1004.7 mb 0.00 in0.0 mm 0.00 in0.0 mm 0.00 in0.0 mm
01:45 PM 52.4°F11.3°C 35.7°F2.1°C 53% 10.0 mph WSW16.1 kmh WSW 26.0 mph41.8 kmh 29.67 in1004.7 mb 0.00 in0.0 mm 0.00 in0.0 mm 0.00 in0.0 mm
01:50 PM 52.1°F11.2°C 35.4°F1.9°C 53% 10.0 mph WSW16.1 kmh WSW 29.0 mph46.7 kmh 29.67 in1004.7 mb 0.00 in0.0 mm 0.00 in0.0 mm 0.00 in0.0 mm
01:55 PM 51.8°F11.0°C 36.6°F2.6°C 56% 16.0 mph WSW25.7 kmh WSW 23.0 mph37.0 kmh 29.67 in1004.7 mb 0.00 in0.0 mm 0.00 in0.0 mm 0.00 in0.0 mm
02:00 PM 51.5°F10.8°C 35.8°F2.1°C 55% 15.0 mph WSW24.1 kmh WSW 23.0 mph37.0 kmh 29.67 in1004.7 mb 0.00 in0.0 mm 0.00 in0.0 mm 0.00 in0.0 mm
02:05 PM 51.1°F10.6°C 35.5°F1.9°C 55% 10.0 mph SSW16.1 kmh SSW 24.0 mph38.6 kmh 29.67 in1004.7 mb 0.00 in0.0 mm 0.00 in0.0 mm 0.00 in0.0 mm
02:10 PM 51.0°F10.6°C 36.3°F2.4°C 57% 9.0 mph WSW14.5 kmh WSW 22.0 mph35.4 kmh 29.67 in1004.7 mb 0.00 in0.0 mm 0.00 in0.0 mm 0.00 in0.0 mm
02:15 PM 51.3°F10.7°C 36.5°F2.5°C 57% 15.0 mph SW24.1 kmh SW 21.0 mph33.8 kmh 29.67 in1004.7 mb 0.00 in0.0 mm 0.00 in0.0 mm 0.00 in0.0 mm
02:20 PM 51.4°F10.8°C 36.2°F2.3°C 56% 8.0 mph SW12.9 kmh SW 18.0 mph29.0 kmh 29.67 in1004.7 mb 0.00 in0.0 mm 0.00 in0.0 mm 0.00 in0.0 mm
02:25 PM 51.5°F10.8°C 36.3°F2.4°C 56% 10.0 mph WSW16.1 kmh WSW 19.0 mph30.6 kmh 29.68 in1005.1 mb 0.00 in0.0 mm 0.00 in0.0 mm 0.00 in0.0 mm
02:30 PM 51.5°F10.8°C 36.3°F2.4°C 56% 11.0 mph SW17.7 kmh SW 21.0 mph33.8 kmh 29.68 in1005.1 mb 0.00 in0.0 mm 0.00 in0.0 mm 0.00 in0.0 mm
02:35 PM 51.4°F10.8°C 36.6°F2.6°C 57% 10.0 mph SW16.1 kmh SW 21.0 mph33.8 kmh 29.68 in1005.1 mb 0.00 in0.0 mm 0.00 in0.0 mm 0.00 in0.0 mm
02:40 PM 51.2°F10.7°C 36.0°F2.2°C 56% 13.0 mph WSW20.9 kmh WSW 23.0 mph37.0 kmh 29.68 in1005.1 mb 0.00 in0.0 mm 0.00 in0.0 mm 0.00 in0.0 mm
02:45 PM 51.3°F10.7°C 36.1°F2.3°C 56% 10.0 mph S16.1 kmh S 19.0 mph30.6 kmh 29.67 in1004.7 mb 0.00 in0.0 mm 0.00 in0.0 mm 0.00 in0.0 mm
02:50 PM 51.5°F10.8°C 36.3°F2.4°C 56% 6.0 mph W9.7 kmh W 24.0 mph38.6 kmh 29.68 in1005.1 mb 0.00 in0.0 mm 0.00 in0.0 mm 0.00 in0.0 mm
02:55 PM 51.4°F10.8°C 35.7°F2.1°C 55% 19.0 mph WSW30.6 kmh WSW 25.0 mph40.2 kmh 29.68 in1005.1 mb 0.00 in0.0 mm 0.00 in0.0 mm 0.00 in0.0 mm
03:00 PM 51.3°F10.7°C 36.1°F2.3°C 56% 14.0 mph SW22.5 kmh SW 24.0 mph38.6 kmh 29.68 in1005.1 mb 0.00 in0.0 mm 0.00 in0.0 mm 0.00 in0.0 mm
03:05 PM 51.5°F10.8°C 37.2°F2.9°C 58% 12.0 mph SW19.3 kmh SW 20.0 mph32.2 kmh 29.68 in1005.1 mb 0.00 in0.0 mm 0.00 in0.0 mm 0.00 in0.0 mm
03:10 PM 51.6°F10.9°C 36.8°F2.7°C 57% 13.0 mph WSW20.9 kmh WSW 22.0 mph35.4 kmh 29.68 in1005.1 mb 0.00 in0.0 mm 0.00 in0.0 mm 0.00 in0.0 mm
03:15 PM 51.3°F10.7°C 36.5°F2.5°C 57% 17.0 mph SW27.4 kmh SW 24.0 mph38.6 kmh 29.68 in1005.1 mb 0.00 in0.0 mm 0.00 in0.0 mm 0.00 in0.0 mm
03:20 PM 51.1°F10.6°C 36.4°F2.4°C 57% 14.0 mph SW22.5 kmh SW 21.0 mph33.8 kmh 29.68 in1005.1 mb 0.00 in0.0 mm 0.00 in0.0 mm 0.00 in0.0 mm
03:25 PM 50.9°F10.5°C 36.6°F2.6°C 58% 14.0 mph WSW22.5 kmh WSW 24.0 mph38.6 kmh 29.68 in1005.1 mb 0.00 in0.0 mm 0.00 in0.0 mm 0.00 in0.0 mm
03:30 PM 50.7°F10.4°C 36.8°F2.7°C 59% 16.0 mph SW25.7 kmh SW 24.0 mph38.6 kmh 29.68 in1005.1 mb 0.00 in0.0 mm 0.00 in0.0 mm 0.00 in0.0 mm
03:35 PM 50.7°F10.4°C 36.8°F2.7°C 59% 14.0 mph SW22.5 kmh SW 21.0 mph33.8 kmh 29.68 in1005.1 mb 0.00 in0.0 mm 0.00 in0.0 mm 0.00 in0.0 mm
03:40 PM 50.9°F10.5°C 37.0°F2.8°C 59% 12.0 mph WSW19.3 kmh WSW 20.0 mph32.2 kmh 29.68 in1005.1 mb 0.00 in0.0 mm 0.00 in0.0 mm 0.00 in0.0 mm
03:45 PM 50.9°F10.5°C 37.5°F3.1°C 60% 10.0 mph SW16.1 kmh SW 25.0 mph40.2 kmh 29.68 in1005.1 mb 0.00 in0.0 mm 0.00 in0.0 mm 0.00 in0.0 mm
03:50 PM 51.0°F10.6°C 37.6°F3.1°C 60% 9.0 mph SW14.5 kmh SW 21.0 mph33.8 kmh 29.68 in1005.1 mb 0.00 in0.0 mm 0.00 in0.0 mm 0.00 in0.0 mm
03:55 PM 51.3°F10.7°C 37.4°F3.0°C 59% 12.0 mph WSW19.3 kmh WSW 24.0 mph38.6 kmh 29.68 in1005.1 mb 0.00 in0.0 mm 0.00 in0.0 mm 0.00 in0.0 mm
04:00 PM 51.4°F10.8°C 37.9°F3.3°C 60% 12.0 mph W19.3 kmh W 24.0 mph38.6 kmh 29.69 in1005.4 mb 0.00 in0.0 mm 0.00 in0.0 mm 0.00 in0.0 mm
04:05 PM 51.2°F10.7°C 37.3°F2.9°C 59% 9.0 mph WSW14.5 kmh WSW 27.0 mph43.5 kmh 29.69 in1005.4 mb 0.00 in0.0 mm 0.00 in0.0 mm 0.00 in0.0 mm
04:10 PM 50.7°F10.4°C 37.3°F2.9°C 60% 11.0 mph WSW17.7 kmh WSW 22.0 mph35.4 kmh 29.69 in1005.4 mb 0.00 in0.0 mm 0.00 in0.0 mm 0.00 in0.0 mm
04:15 PM 50.0°F10.0°C 37.4°F3.0°C 62% 11.0 mph W17.7 kmh W 23.0 mph37.0 kmh 29.69 in1005.4 mb 0.00 in0.0 mm 0.00 in0.0 mm 0.00 in0.0 mm
04:20 PM 49.9°F9.9°C 37.8°F3.2°C 63% 25.0 mph WSW40.2 kmh WSW 25.0 mph40.2 kmh 29.69 in1005.4 mb 0.00 in0.0 mm 0.00 in0.0 mm 0.00 in0.0 mm
04:25 PM 49.8°F9.9°C 37.3°F2.9°C 62% 16.0 mph SW25.7 kmh SW 25.0 mph40.2 kmh 29.70 in1005.8 mb 0.00 in0.0 mm 0.00 in0.0 mm 0.00 in0.0 mm
04:30 PM 49.5°F9.7°C 37.0°F2.8°C 62% 16.0 mph WSW25.7 kmh WSW 26.0 mph41.8 kmh 29.70 in1005.8 mb 0.00 in0.0 mm 0.00 in0.0 mm 0.00 in0.0 mm
04:35 PM 49.3°F9.6°C 37.2°F2.9°C 63% 15.0 mph WSW24.1 kmh WSW 25.0 mph40.2 kmh 29.70 in1005.8 mb 0.00 in0.0 mm 0.00 in0.0 mm 0.00 in0.0 mm
04:40 PM 49.2°F9.6°C 37.1°F2.8°C 63% 16.0 mph WSW25.7 kmh WSW 20.0 mph32.2 kmh 29.70 in1005.8 mb 0.00 in0.0 mm 0.00 in0.0 mm 0.00 in0.0 mm
04:45 PM 49.1°F9.5°C 37.0°F2.8°C 63% 22.0 mph WSW35.4 kmh WSW 24.0 mph38.6 kmh 29.70 in1005.8 mb 0.00 in0.0 mm 0.00 in0.0 mm 0.00 in0.0 mm
04:50 PM 48.9°F9.4°C 37.2°F2.9°C 64% 11.0 mph WSW17.7 kmh WSW 24.0 mph38.6 kmh 29.71 in1006.1 mb 0.00 in0.0 mm 0.00 in0.0 mm 0.00 in0.0 mm
04:55 PM 48.8°F9.3°C 37.1°F2.8°C 64% 18.0 mph WSW29.0 kmh WSW 23.0 mph37.0 kmh 29.71 in1006.1 mb 0.00 in0.0 mm 0.00 in0.0 mm 0.00 in0.0 mm
05:00 PM 48.7°F9.3°C 37.0°F2.8°C 64% 19.0 mph WSW30.6 kmh WSW 25.0 mph40.2 kmh 29.71 in1006.1 mb 0.00 in0.0 mm 0.00 in0.0 mm 0.00 in0.0 mm
05:05 PM 48.5°F9.2°C 36.8°F2.7°C 64% 16.0 mph SW25.7 kmh SW 25.0 mph40.2 kmh 29.71 in1006.1 mb 0.00 in0.0 mm 0.00 in0.0 mm 0.00 in0.0 mm
05:10 PM 48.4°F9.1°C 37.1°F2.8°C 65% 15.0 mph WSW24.1 kmh WSW 23.0 mph37.0 kmh 29.71 in1006.1 mb 0.00 in0.0 mm 0.00 in0.0 mm 0.00 in0.0 mm
05:15 PM 48.3°F9.1°C 37.0°F2.8°C 65% 16.0 mph WSW25.7 kmh WSW 21.0 mph33.8 kmh 29.72 in1006.4 mb 0.00 in0.0 mm 0.00 in0.0 mm 0.00 in0.0 mm
05:20 PM 48.2°F9.0°C 36.9°F2.7°C 65% 14.0 mph WSW22.5 kmh WSW 21.0 mph33.8 kmh 29.72 in1006.4 mb 0.00 in0.0 mm 0.00 in0.0 mm 0.00 in0.0 mm
05:25 PM 48.1°F8.9°C 36.8°F2.7°C 65% 14.0 mph SW22.5 kmh SW 22.0 mph35.4 kmh 29.72 in1006.4 mb 0.00 in0.0 mm 0.00 in0.0 mm 0.00 in0.0 mm
05:30 PM 48.0°F8.9°C 37.1°F2.8°C 66% 7.0 mph SW11.3 kmh SW 18.0 mph29.0 kmh 29.72 in1006.4 mb 0.00 in0.0 mm 0.00 in0.0 mm 0.00 in0.0 mm
05:35 PM 47.8°F8.8°C 37.0°F2.8°C 66% 9.0 mph SW14.5 kmh SW 16.0 mph25.7 kmh 29.72 in1006.4 mb 0.00 in0.0 mm 0.00 in0.0 mm 0.00 in0.0 mm
05:40 PM 47.7°F8.7°C 36.9°F2.7°C 66% 9.0 mph WSW14.5 kmh WSW 15.0 mph24.1 kmh 29.72 in1006.4 mb 0.00 in0.0 mm 0.00 in0.0 mm 0.00 in0.0 mm
05:45 PM 47.7°F8.7°C 37.2°F2.9°C 67% 15.0 mph WSW24.1 kmh WSW 19.0 mph30.6 kmh 29.72 in1006.4 mb 0.00 in0.0 mm 0.00 in0.0 mm 0.00 in0.0 mm
05:50 PM 47.7°F8.7°C 37.2°F2.9°C 67% 6.0 mph WSW9.7 kmh WSW 19.0 mph30.6 kmh 29.72 in1006.4 mb 0.00 in0.0 mm 0.00 in0.0 mm 0.00 in0.0 mm
05:55 PM 47.7°F8.7°C 37.2°F2.9°C 67% 9.0 mph SW14.5 kmh SW 24.0 mph38.6 kmh 29.73 in1006.8 mb 0.00 in0.0 mm 0.00 in0.0 mm 0.00 in0.0 mm
06:00 PM 47.6°F8.7°C 37.1°F2.8°C 67% 8.0 mph WSW12.9 kmh WSW 24.0 mph38.6 kmh 29.73 in1006.8 mb 0.00 in0.0 mm 0.00 in0.0 mm 0.00 in0.0 mm
06:05 PM 47.4°F8.6°C 37.3°F2.9°C 68% 7.0 mph WSW11.3 kmh WSW 19.0 mph30.6 kmh 29.73 in1006.8 mb 0.00 in0.0 mm 0.00 in0.0 mm 0.00 in0.0 mm
06:10 PM 47.4°F8.6°C 37.0°F2.8°C 67% 13.0 mph W20.9 kmh W 22.0 mph35.4 kmh 29.73 in1006.8 mb 0.00 in0.0 mm 0.00 in0.0 mm 0.00 in0.0 mm
06:15 PM 47.3°F8.5°C 37.2°F2.9°C 68% 13.0 mph NW20.9 kmh NW 21.0 mph33.8 kmh 29.74 in1007.1 mb 0.00 in0.0 mm 0.00 in0.0 mm 0.00 in0.0 mm
06:20 PM 47.1°F8.4°C 37.4°F3.0°C 69% 9.0 mph WSW14.5 kmh WSW 15.0 mph24.1 kmh 29.74 in1007.1 mb 0.00 in0.0 mm 0.00 in0.0 mm 0.00 in0.0 mm
06:25 PM 47.0°F8.3°C 37.3°F2.9°C 69% 10.0 mph SW16.1 kmh SW 17.0 mph27.4 kmh 29.74 in1007.1 mb 0.00 in0.0 mm 0.00 in0.0 mm 0.00 in0.0 mm
06:30 PM 46.9°F8.3°C 37.2°F2.9°C 69% 9.0 mph SW14.5 kmh SW 18.0 mph29.0 kmh 29.74 in1007.1 mb 0.00 in0.0 mm 0.00 in0.0 mm 0.00 in0.0 mm
06:35 PM 47.0°F8.3°C 36.9°F2.7°C 68% 10.0 mph WSW16.1 kmh WSW 25.0 mph40.2 kmh 29.74 in1007.1 mb 0.00 in0.0 mm 0.00 in0.0 mm 0.00 in0.0 mm
06:40 PM 47.0°F8.3°C 37.3°F2.9°C 69% 10.0 mph SW16.1 kmh SW 21.0 mph33.8 kmh 29.74 in1007.1 mb 0.00 in0.0 mm 0.00 in0.0 mm 0.00 in0.0 mm
06:45 PM 46.9°F8.3°C 37.2°F2.9°C 69% 9.0 mph SW14.5 kmh SW 17.0 mph27.4 kmh 29.74 in1007.1 mb 0.00 in0.0 mm 0.00 in0.0 mm 0.00 in0.0 mm
06:50 PM 46.7°F8.2°C 37.4°F3.0°C 70% 9.0 mph WSW14.5 kmh WSW 20.0 mph32.2 kmh 29.74 in1007.1 mb 0.00 in0.0 mm 0.00 in0.0 mm 0.00 in0.0 mm
06:55 PM 46.7°F8.2°C 37.4°F3.0°C 70% 13.0 mph SW20.9 kmh SW 20.0 mph32.2 kmh 29.75 in1007.5 mb 0.00 in0.0 mm 0.00 in0.0 mm 0.00 in0.0 mm
07:00 PM 46.6°F8.1°C 37.3°F2.9°C 70% 6.0 mph WSW9.7 kmh WSW 16.0 mph25.7 kmh 29.75 in1007.5 mb 0.00 in0.0 mm 0.00 in0.0 mm 0.00 in0.0 mm
07:05 PM 46.5°F8.1°C 37.2°F2.9°C 70% 11.0 mph SW17.7 kmh SW 17.0 mph27.4 kmh 29.75 in1007.5 mb 0.00 in0.0 mm 0.00 in0.0 mm 0.00 in0.0 mm
07:10 PM 46.5°F8.1°C 37.2°F2.9°C 70% 5.0 mph WSW8.0 kmh WSW 21.0 mph33.8 kmh 29.75 in1007.5 mb 0.00 in0.0 mm 0.00 in0.0 mm 0.00 in0.0 mm
07:15 PM 46.4°F8.0°C 37.5°F3.1°C 71% 7.0 mph SW11.3 kmh SW 20.0 mph32.2 kmh 29.76 in1007.8 mb 0.00 in0.0 mm 0.00 in0.0 mm 0.00 in0.0 mm
07:20 PM 46.2°F7.9°C 37.3°F2.9°C 71% 16.0 mph WSW25.7 kmh WSW 22.0 mph35.4 kmh 29.76 in1007.8 mb 0.00 in0.0 mm 0.00 in0.0 mm 0.00 in0.0 mm
07:25 PM 46.0°F7.8°C 37.1°F2.8°C 71% 13.0 mph WSW20.9 kmh WSW 21.0 mph33.8 kmh 29.76 in1007.8 mb 0.00 in0.0 mm 0.00 in0.0 mm 0.00 in0.0 mm
07:30 PM 45.8°F7.7°C 37.2°F2.9°C 72% 9.0 mph WSW14.5 kmh WSW 16.0 mph25.7 kmh 29.76 in1007.8 mb 0.00 in0.0 mm 0.00 in0.0 mm 0.00 in0.0 mm
07:35 PM 45.7°F7.6°C 37.1°F2.8°C 72% 12.0 mph WSW19.3 kmh WSW 23.0 mph37.0 kmh 29.76 in1007.8 mb 0.00 in0.0 mm 0.00 in0.0 mm 0.00 in0.0 mm
07:40 PM 45.7°F7.6°C 37.1°F2.8°C 72% 11.0 mph SW17.7 kmh SW 22.0 mph35.4 kmh 29.76 in1007.8 mb 0.00 in0.0 mm 0.00 in0.0 mm 0.00 in0.0 mm
07:45 PM 45.6°F7.6°C 37.1°F2.8°C 72% 16.0 mph SW25.7 kmh SW 23.0 mph37.0 kmh 29.76 in1007.8 mb 0.00 in0.0 mm 0.00 in0.0 mm 0.00 in0.0 mm
07:50 PM 45.6°F7.6°C 37.1°F2.8°C 72% 6.0 mph WSW9.7 kmh WSW 23.0 mph37.0 kmh 29.76 in1007.8 mb 0.00 in0.0 mm 0.00 in0.0 mm 0.00 in0.0 mm
07:55 PM 45.4°F7.4°C 36.9°F2.7°C 72% 18.0 mph SW29.0 kmh SW 18.0 mph29.0 kmh 29.76 in1007.8 mb 0.00 in0.0 mm 0.00 in0.0 mm 0.00 in0.0 mm
08:00 PM 45.3°F7.4°C 37.1°F2.8°C 73% 6.0 mph SSW9.7 kmh SSW 20.0 mph32.2 kmh 29.76 in1007.8 mb 0.00 in0.0 mm 0.00 in0.0 mm 0.00 in0.0 mm
08:05 PM 45.3°F7.4°C 37.1°F2.8°C 73% 12.0 mph WSW19.3 kmh WSW 19.0 mph30.6 kmh 29.76 in1007.8 mb 0.00 in0.0 mm 0.00 in0.0 mm 0.00 in0.0 mm
08:10 PM 45.3°F7.4°C 37.1°F2.8°C 73% 10.0 mph SSW16.1 kmh SSW 19.0 mph30.6 kmh 29.76 in1007.8 mb 0.00 in0.0 mm 0.00 in0.0 mm 0.00 in0.0 mm
08:15 PM 45.2°F7.3°C 37.0°F2.8°C 73% 11.0 mph WSW17.7 kmh WSW 25.0 mph40.2 kmh 29.76 in1007.8 mb 0.00 in0.0 mm 0.00 in0.0 mm 0.00 in0.0 mm
08:20 PM 45.2°F7.3°C 37.4°F3.0°C 74% 19.0 mph SSW30.6 kmh SSW 23.0 mph37.0 kmh 29.76 in1007.8 mb 0.00 in0.0 mm 0.00 in0.0 mm 0.00 in0.0 mm
08:25 PM 45.1°F7.3°C 37.3°F2.9°C 74% 16.0 mph SW25.7 kmh SW 24.0 mph38.6 kmh 29.76 in1007.8 mb 0.00 in0.0 mm 0.00 in0.0 mm 0.00 in0.0 mm
08:30 PM 45.0°F7.2°C 37.2°F2.9°C 74% 15.0 mph SW24.1 kmh SW 22.0 mph35.4 kmh 29.76 in1007.8 mb 0.00 in0.0 mm 0.00 in0.0 mm 0.00 in0.0 mm
08:35 PM 44.9°F7.2°C 37.4°F3.0°C 75% 12.0 mph WSW19.3 kmh WSW 24.0 mph38.6 kmh 29.77 in1008.1 mb 0.00 in0.0 mm 0.00 in0.0 mm 0.00 in0.0 mm
08:40 PM 44.8°F7.1°C 37.3°F2.9°C 75% 5.0 mph SW8.0 kmh SW 19.0 mph30.6 kmh 29.77 in1008.1 mb 0.00 in0.0 mm 0.00 in0.0 mm 0.00 in0.0 mm
08:45 PM 44.7°F7.1°C 37.2°F2.9°C 75% 12.0 mph SW19.3 kmh SW 23.0 mph37.0 kmh 29.77 in1008.1 mb 0.00 in0.0 mm 0.00 in0.0 mm 0.00 in0.0 mm
08:50 PM 44.6°F7.0°C 37.1°F2.8°C 75% 5.0 mph SSW8.0 kmh SSW 21.0 mph33.8 kmh 29.76 in1007.8 mb 0.00 in0.0 mm 0.00 in0.0 mm 0.00 in0.0 mm
08:55 PM 44.5°F6.9°C 37.4°F3.0°C 76% 11.0 mph WSW17.7 kmh WSW 18.0 mph29.0 kmh 29.77 in1008.1 mb 0.00 in0.0 mm 0.00 in0.0 mm 0.00 in0.0 mm
09:00 PM 44.4°F6.9°C 37.3°F2.9°C 76% 11.0 mph SW17.7 kmh SW 22.0 mph35.4 kmh 29.77 in1008.1 mb 0.00 in0.0 mm 0.00 in0.0 mm 0.00 in0.0 mm
09:05 PM 44.5°F6.9°C 37.4°F3.0°C 76% 7.0 mph SW11.3 kmh SW 15.0 mph24.1 kmh 29.77 in1008.1 mb 0.00 in0.0 mm 0.00 in0.0 mm 0.00 in0.0 mm
09:10 PM 44.5°F6.9°C 37.4°F3.0°C 76% 21.0 mph SW33.8 kmh SW 25.0 mph40.2 kmh 29.77 in1008.1 mb 0.00 in0.0 mm 0.00 in0.0 mm 0.00 in0.0 mm
09:15 PM 44.5°F6.9°C 37.4°F3.0°C 76% 6.0 mph WSW9.7 kmh WSW 23.0 mph37.0 kmh 29.77 in1008.1 mb 0.00 in0.0 mm 0.00 in0.0 mm 0.00 in0.0 mm
09:20 PM 44.5°F6.9°C 37.4°F3.0°C 76% 9.0 mph SW14.5 kmh SW 21.0 mph33.8 kmh 29.77 in1008.1 mb 0.00 in0.0 mm 0.00 in0.0 mm 0.00 in0.0 mm
09:25 PM 44.5°F6.9°C 37.4°F3.0°C 76% 7.0 mph SW11.3 kmh SW 20.0 mph32.2 kmh 29.77 in1008.1 mb 0.00 in0.0 mm 0.00 in0.0 mm 0.00 in0.0 mm
09:30 PM 44.4°F6.9°C 37.3°F2.9°C 76% 12.0 mph W19.3 kmh W 20.0 mph32.2 kmh 29.77 in1008.1 mb 0.00 in0.0 mm 0.00 in0.0 mm 0.00 in0.0 mm
09:35 PM 44.4°F6.9°C 37.3°F2.9°C 76% 19.0 mph WSW30.6 kmh WSW 19.0 mph30.6 kmh 29.78 in1008.5 mb 0.00 in0.0 mm 0.00 in0.0 mm 0.00 in0.0 mm
09:40 PM 44.5°F6.9°C 37.4°F3.0°C 76% 10.0 mph WNW16.1 kmh WNW 18.0 mph29.0 kmh 29.78 in1008.5 mb 0.00 in0.0 mm 0.00 in0.0 mm 0.00 in0.0 mm
09:45 PM 44.5°F6.9°C 37.4°F3.0°C 76% 14.0 mph SW22.5 kmh SW 18.0 mph29.0 kmh 29.78 in1008.5 mb 0.00 in0.0 mm 0.00 in0.0 mm 0.00 in0.0 mm
09:50 PM 44.5°F6.9°C 37.4°F3.0°C 76% 10.0 mph WSW16.1 kmh WSW 14.0 mph22.5 kmh 29.78 in1008.5 mb 0.00 in0.0 mm 0.00 in0.0 mm 0.00 in0.0 mm
09:55 PM 44.6°F7.0°C 37.5°F3.1°C 76% 7.0 mph W11.3 kmh W 18.0 mph29.0 kmh 29.78 in1008.5 mb 0.00 in0.0 mm 0.00 in0.0 mm 0.00 in0.0 mm
10:00 PM 44.7°F7.1°C 37.6°F3.1°C 76% 17.0 mph W27.4 kmh W 20.0 mph32.2 kmh 29.79 in1008.8 mb 0.00 in0.0 mm 0.00 in0.0 mm 0.00 in0.0 mm
10:05 PM 44.7°F7.1°C 37.2°F2.9°C 75% 11.0 mph SW17.7 kmh SW 19.0 mph30.6 kmh 29.78 in1008.5 mb 0.00 in0.0 mm 0.00 in0.0 mm 0.00 in0.0 mm
10:10 PM 44.7°F7.1°C 37.2°F2.9°C 75% 10.0 mph WSW16.1 kmh WSW 17.0 mph27.4 kmh 29.79 in1008.8 mb 0.00 in0.0 mm 0.00 in0.0 mm 0.00 in0.0 mm
10:15 PM 44.7°F7.1°C 37.6°F3.1°C 76% 13.0 mph WSW20.9 kmh WSW 17.0 mph27.4 kmh 29.79 in1008.8 mb 0.00 in0.0 mm 0.00 in0.0 mm 0.00 in0.0 mm
10:20 PM 44.7°F7.1°C 37.6°F3.1°C 76% 6.0 mph SW9.7 kmh SW 19.0 mph30.6 kmh 29.79 in1008.8 mb 0.00 in0.0 mm 0.00 in0.0 mm 0.00 in0.0 mm
10:25 PM 44.6°F7.0°C 37.5°F3.1°C 76% 11.0 mph WSW17.7 kmh WSW 15.0 mph24.1 kmh 29.79 in1008.8 mb 0.00 in0.0 mm 0.00 in0.0 mm 0.00 in0.0 mm
10:30 PM 44.6°F7.0°C 37.5°F3.1°C 76% 13.0 mph WSW20.9 kmh WSW 19.0 mph30.6 kmh 29.79 in1008.8 mb 0.00 in0.0 mm 0.00 in0.0 mm 0.00 in0.0 mm
10:35 PM 44.5°F6.9°C 37.4°F3.0°C 76% 15.0 mph WSW24.1 kmh WSW 18.0 mph29.0 kmh 29.79 in1008.8 mb 0.00 in0.0 mm 0.00 in0.0 mm 0.00 in0.0 mm
10:40 PM 44.5°F6.9°C 37.4°F3.0°C 76% 14.0 mph WSW22.5 kmh WSW 16.0 mph25.7 kmh 29.80 in1009.1 mb 0.00 in0.0 mm 0.00 in0.0 mm 0.00 in0.0 mm
10:45 PM 44.4°F6.9°C 37.6°F3.1°C 77% 15.0 mph W24.1 kmh W 16.0 mph25.7 kmh 29.80 in1009.1 mb 0.00 in0.0 mm 0.00 in0.0 mm 0.00 in0.0 mm
10:50 PM 44.4°F6.9°C 37.6°F3.1°C 77% 15.0 mph W24.1 kmh W 23.0 mph37.0 kmh 29.80 in1009.1 mb 0.00 in0.0 mm 0.00 in0.0 mm 0.00 in0.0 mm
10:55 PM 44.3°F6.8°C 37.8°F3.2°C 78% 19.0 mph SW30.6 kmh SW 19.0 mph30.6 kmh 29.80 in1009.1 mb 0.00 in0.0 mm 0.00 in0.0 mm 0.00 in0.0 mm
11:00 PM 44.2°F6.8°C 37.7°F3.2°C 78% 9.0 mph S14.5 kmh S 19.0 mph30.6 kmh 29.80 in1009.1 mb 0.00 in0.0 mm 0.00 in0.0 mm 0.00 in0.0 mm
11:05 PM 44.2°F6.8°C 37.7°F3.2°C 78% 9.0 mph SW14.5 kmh SW 17.0 mph27.4 kmh 29.80 in1009.1 mb 0.00 in0.0 mm 0.00 in0.0 mm 0.00 in0.0 mm
11:10 PM 44.0°F6.7°C 37.9°F3.3°C 79% 12.0 mph WSW19.3 kmh WSW 19.0 mph30.6 kmh 29.80 in1009.1 mb 0.00 in0.0 mm 0.00 in0.0 mm 0.00 in0.0 mm
11:15 PM 44.0°F6.7°C 37.9°F3.3°C 79% 6.0 mph SW9.7 kmh SW 23.0 mph37.0 kmh 29.80 in1009.1 mb 0.00 in0.0 mm 0.00 in0.0 mm 0.00 in0.0 mm
11:20 PM 43.8°F6.6°C 38.0°F3.3°C 80% 16.0 mph WSW25.7 kmh WSW 18.0 mph29.0 kmh 29.80 in1009.1 mb 0.00 in0.0 mm 0.00 in0.0 mm 0.00 in0.0 mm
11:25 PM 43.7°F6.5°C 37.9°F3.3°C 80% 13.0 mph WSW20.9 kmh WSW 20.0 mph32.2 kmh 29.80 in1009.1 mb 0.00 in0.0 mm 0.00 in0.0 mm 0.00 in0.0 mm
11:30 PM 43.6°F6.4°C 37.8°F3.2°C 80% 11.0 mph WSW17.7 kmh WSW 22.0 mph35.4 kmh 29.80 in1009.1 mb 0.00 in0.0 mm 0.00 in0.0 mm 0.00 in0.0 mm
11:35 PM 43.6°F6.4°C 38.1°F3.4°C 81% 9.0 mph WSW14.5 kmh WSW 20.0 mph32.2 kmh 29.81 in1009.5 mb 0.00 in0.0 mm 0.00 in0.0 mm 0.00 in0.0 mm
11:40 PM 43.5°F6.4°C 38.0°F3.3°C 81% 6.0 mph SW9.7 kmh SW 17.0 mph27.4 kmh 29.81 in1009.5 mb 0.00 in0.0 mm 0.00 in0.0 mm 0.00 in0.0 mm
11:45 PM 43.4°F6.3°C 37.9°F3.3°C 81% 6.0 mph SW9.7 kmh SW 15.0 mph24.1 kmh 29.81 in1009.5 mb 0.00 in0.0 mm 0.00 in0.0 mm 0.00 in0.0 mm
11:50 PM 43.4°F6.3°C 37.9°F3.3°C 81% 5.0 mph WSW8.0 kmh WSW 19.0 mph30.6 kmh 29.81 in1009.5 mb 0.00 in0.0 mm 0.00 in0.0 mm 0.00 in0.0 mm
11:55 PM 43.4°F6.3°C 37.9°F3.3°C 81% 6.0 mph SW9.7 kmh SW 18.0 mph29.0 kmh 29.81 in1009.5 mb 0.00 in0.0 mm 0.00 in0.0 mm 0.00 in0.0 mm